x

North Hecate Strait (46183) Wave Buoy

1:00am - Wed 31st Aug 2016 All times are PDT. -7 hours from GMT.

  • Sig Wave height 2.3ft
  • Peak Period 5s
  • Wind
    11mph, 13mph gusts
  • Air Temp 55°f
  • Sea Pressure 1010.3mb
  • North Hecate Strait
  • North Hecate Strait

More Historic Weather Station data

Upgrade to MSW Pro to gain access to the past 30 days of data for over 8000 Wavebouys and Weather Stations around the globe.

Join Pro

Comparision Forecast

View Surf forecast
   
Wed 08/31 1:00am 2.5ft 5s 11 13 mph 1010.3mb 55f
12:00am 2ft 5s 7 11 mph 1010.5mb 55f
Tue 08/30 11:00pm 2ft 5s 9 11 mph 1011mb 55f
10:00pm 2.5ft 5s 9 11 mph 1011.3mb 54f
9:00pm 2.5ft 5s 11 13 mph 1011.4mb 55f
8:00pm 3ft 5s 11 13 mph 1011.2mb 55f
7:00pm 2.5ft 6s 16 18 mph 1011.5mb 56f
6:00pm 2.5ft 6s 13 16 mph 1011.5mb 55f
5:00pm 2.5ft 5s 18 22 mph 1011.3mb 56f
4:00pm 2.5ft 5s 13 18 mph 1011.3mb 56f
3:00pm 2.5ft 5s 11 13 mph 1011.3mb 56f
2:00pm 2.5ft 5s 13 16 mph 1011.3mb 56f
1:00pm 2.5ft 5s 11 16 mph 1011.2mb 55f
12:00pm 3ft 5s 13 16 mph 1011.1mb 55f
11:00am 3ft 5s 16 18 mph 1010.9mb 55f
10:00am 3ft 6s 16 18 mph 1010.9mb 55f
9:00am 3ft 6s 18 20 mph 1010.9mb 55f
8:00am 3.5ft 6s 18 22 mph 1011mb 54f
7:00am 3.5ft 6s 20 25 mph 1010.7mb 55f
6:00am 3.5ft 6s 18 22 mph 1010.7mb 55f
5:00am 3.5ft 6s 16 18 mph 1010.8mb 55f
4:00am 3.5ft 7s 16 20 mph 1010.8mb 55f
3:00am 4ft 6s 18 22 mph 1010.5mb 55f
2:00am 4.5ft 7s 16 18 mph 1010.4mb 55f
1:00am 4.5ft 7s 18 20 mph 1010mb 55f
12:00am 4.5ft 7s 20 22 mph 1009.8mb 54f
Mon 08/29 11:00pm 5ft 7s 18 22 mph 1009.6mb 54f
10:00pm 5ft 7s 22 25 mph 1009.6mb 54f
9:00pm 5ft 7s 22 27 mph 1009.6mb 54f
8:00pm 5ft 7s 20 22 mph 1009.6mb 54f
7:00pm 5.5ft 7s 22 27 mph 1009.6mb 55f
6:00pm 6ft 8s 20 22 mph 1009.6mb 55f
5:00pm 6ft 8s 20 22 mph 1009.5mb 55f
4:00pm 6.5ft 8s 20 25 mph 1009.3mb 55f
3:00pm 7ft 8s 20 22 mph 1009.2mb 55f
2:00pm 6.5ft 8s 20 25 mph 1009.3mb 55f
1:00pm 7ft 8s 22 27 mph 1008.9mb 55f
12:00pm 7ft 8s 22 27 mph 1008.8mb 55f
11:00am 7ft 7s 22 27 mph 1008.7mb 55f
10:00am 7ft 8s 22 27 mph 1008.5mb 55f
9:00am 6.5ft 8s 22 27 mph 1008.5mb 56f
8:00am 7.5ft 8s 20 25 mph 1008.3mb 56f
7:00am 8ft 8s 20 25 mph 1007.9mb 56f
6:00am 9ft 9s 22 27 mph 1007.5mb 56f
5:00am 9ft 8s 27 34 mph 1007mb 55f
4:00am 9ft 8s 29 36 mph 1006.4mb 55f
3:00am 8.5ft 9s 29 36 mph 1006.6mb 55f
2:00am 7.5ft 8s 27 34 mph 1006.7mb 56f
1:00am  -   -  27
mph
1006.4mb 55f
12:00am 7.5ft 8s 22 27 mph 1007mb 54f
Sun 08/28 11:00pm 7.5ft 8s 22 27 mph 1007.1mb 54f
10:00pm 7ft 8s 25 29 mph 1007.1mb 54f
9:00pm 7ft 8s 22 25 mph 1006.9mb 55f
8:00pm 7ft 8s 22 27 mph 1006.6mb 54f
7:00pm 7ft 8s 22 27 mph 1007.1mb 55f
6:00pm 7ft 8s 25 31 mph 1007.1mb 55f
5:00pm 7ft 7s 25 29 mph 1007.2mb 54f
4:00pm 8ft 8s 27 31 mph 1007.4mb 54f
3:00pm 8ft 8s 29 36 mph 1007.5mb 54f
2:00pm 8ft 7s 29 40 mph 1007.5mb 55f
1:00pm 6ft 5s 31 38 mph 1007.4mb 55f
12:00pm 4.5ft 5s 27 34 mph 1008.1mb 55f
11:00am 4.5ft 5s 25 27 mph 1008.4mb 56f
10:00am 3.5ft 4s 22 29 mph 1009mb 55f
9:00am 3.5ft 5s 25 29 mph 1008.9mb 55f
8:00am 3ft 4s 20 25 mph 1009.9mb 55f
7:00am 2.5ft 4s 20 25 mph 1010mb 55f
6:00am 2.5ft 4s 20 25 mph 1009.8mb 56f
5:00am 2.5ft 4s 20 22 mph 1010mb 56f
4:00am 2ft 4s 18 22 mph 1010.1mb 56f
3:00am 1.6ft 4s 18 20 mph 1010.4mb 55f
2:00am 1.6ft 3s 16 18 mph 1010.8mb 55f
1:00am 1.3ft 3s 13 18 mph 1010.9mb 55f
12:00am 1.3ft 16s 11 13 mph 1010.9mb 55f
Sat 08/27 11:00pm 1ft 15s 13 18 mph 1010.9mb 55f
10:00pm 1ft 15s 11 13 mph 1011mb 55f
9:00pm 1ft 16s 9 11 mph 1010.9mb 56f
8:00pm 1ft 16s 9
mph
1010.9mb 56f
7:00pm 1ft 16s 7 9 mph 1011.4mb 56f
6:00pm 1ft 4s 4
mph
1011.4mb 55f
5:00pm 1.3ft 4s 7 9 mph 1011.4mb 55f
4:00pm 1.6ft 4s 4
mph
1011.5mb 55f
3:00pm 2ft 4s 7 9 mph 1011.6mb 56f
2:00pm 2ft 4s 7 9 mph 1011.4mb 56f
1:00pm 2.5ft 4s 4 7 mph 1011.3mb 56f
12:00pm 3ft 5s 4
mph
1011.2mb 57f
11:00am 3.5ft 5s 9 11 mph 1010.6mb 57f
10:00am 3.5ft 5s 9 11 mph 1010.6mb 57f